createdAt,value
2019-06-26T00:00:36.669Z,21.80
2019-06-26T00:05:41.394Z,21.70
2019-06-26T00:10:45.935Z,21.60
2019-06-26T00:15:50.438Z,21.60
2019-06-26T00:20:55.084Z,21.50
2019-06-26T00:25:59.711Z,21.40
2019-06-26T00:31:04.269Z,21.40
2019-06-26T00:36:08.834Z,21.30
2019-06-26T00:41:13.342Z,21.30
2019-06-26T00:46:17.985Z,21.30
2019-06-26T00:51:22.546Z,21.20
2019-06-26T00:56:27.220Z,21.20
2019-06-26T01:01:31.840Z,21.20
2019-06-26T01:06:45.371Z,21.10
2019-06-26T01:11:49.868Z,21.10
2019-06-26T01:16:54.540Z,20.90
2019-06-26T01:21:59.167Z,20.90
2019-06-26T01:27:03.801Z,20.90
2019-06-26T01:32:08.237Z,20.90
2019-06-26T01:37:12.733Z,20.90
2019-06-26T01:42:17.157Z,20.80
2019-06-26T01:47:21.732Z,20.80
2019-06-26T01:52:26.322Z,20.70
2019-06-26T01:57:30.856Z,20.70
2019-06-26T02:02:35.286Z,20.70
2019-06-26T02:07:40.004Z,20.70
2019-06-26T02:12:44.594Z,20.60
2019-06-26T02:17:49.161Z,20.60
2019-06-26T02:22:53.729Z,20.50
2019-06-26T02:27:58.219Z,20.50
2019-06-26T02:33:02.641Z,20.50
2019-06-26T02:38:07.138Z,20.50
2019-06-26T02:43:11.768Z,20.40
2019-06-26T02:48:16.400Z,20.40
2019-06-26T02:53:20.883Z,20.40
2019-06-26T02:58:25.521Z,20.40
2019-06-26T03:03:30.616Z,20.40
2019-06-26T03:08:35.033Z,20.40
2019-06-26T03:13:39.589Z,20.40
2019-06-26T03:18:44.171Z,20.40
2019-06-26T03:23:48.705Z,20.40
2019-06-26T03:28:53.347Z,20.40
2019-06-26T03:33:57.914Z,20.40
2019-06-26T03:39:02.313Z,20.40
2019-06-26T03:44:06.794Z,20.40
2019-06-26T03:49:11.279Z,20.50
2019-06-26T03:54:16.439Z,20.50
2019-06-26T03:59:20.997Z,20.60
2019-06-26T04:04:25.569Z,20.60
2019-06-26T04:09:30.041Z,20.70
2019-06-26T04:14:34.523Z,20.80
2019-06-26T04:19:39.359Z,20.80
2019-06-26T04:24:43.849Z,20.90
2019-06-26T04:29:48.423Z,21.00
2019-06-26T04:34:54.561Z,21.10
2019-06-26T04:39:59.204Z,21.20
2019-06-26T04:45:05.461Z,21.20
2019-06-26T04:50:11.769Z,21.40
2019-06-26T04:55:16.380Z,21.50
2019-06-26T05:00:21.986Z,21.60
2019-06-26T05:05:38.879Z,21.80
2019-06-26T05:10:32.793Z,22.00
2019-06-26T05:15:37.472Z,22.10
2019-06-26T05:20:42.050Z,22.30
2019-06-26T05:25:46.501Z,22.40
2019-06-26T05:30:51.005Z,22.50
2019-06-26T05:35:55.662Z,22.60
2019-06-26T05:41:00.149Z,22.80
2019-06-26T05:46:04.854Z,23.10
2019-06-26T05:51:09.442Z,23.30
2019-06-26T05:56:13.962Z,23.50
2019-06-26T06:01:18.518Z,23.70
2019-06-26T06:06:23.093Z,23.90
2019-06-26T06:11:27.571Z,24.10
2019-06-26T06:16:46.426Z,24.40
2019-06-26T06:21:38.462Z,24.70
2019-06-26T06:26:42.864Z,24.80
2019-06-26T06:31:47.355Z,25.10
2019-06-26T06:36:51.919Z,25.20
2019-06-26T06:41:56.364Z,25.40
2019-06-26T06:47:04.285Z,25.60
2019-06-26T06:52:07.294Z,25.70
2019-06-26T06:57:11.780Z,25.90
2019-06-26T07:02:16.362Z,26.10
2019-06-26T07:07:20.975Z,26.40
2019-06-26T07:12:25.763Z,26.60
2019-06-26T07:17:30.409Z,26.70
2019-06-26T07:22:35.027Z,26.80
2019-06-26T07:27:39.595Z,27.00
2019-06-26T07:32:44.226Z,27.00
2019-06-26T07:37:48.707Z,27.20
2019-06-26T07:42:53.288Z,27.50
2019-06-26T07:47:57.689Z,27.70
2019-06-26T07:53:02.274Z,27.90
2019-06-26T07:58:06.959Z,28.20
2019-06-26T08:03:11.438Z,28.50
2019-06-26T08:08:15.920Z,28.50
2019-06-26T08:13:20.344Z,28.90
2019-06-26T08:18:24.897Z,29.20
2019-06-26T08:23:29.525Z,29.50
2019-06-26T08:28:33.942Z,29.70
2019-06-26T08:33:38.505Z,30.10
2019-06-26T08:38:42.924Z,30.10
2019-06-26T08:43:47.745Z,30.20
2019-06-26T08:48:53.157Z,30.30
2019-06-26T08:53:57.709Z,30.70
2019-06-26T08:59:02.264Z,30.70
2019-06-26T09:04:06.901Z,30.70
2019-06-26T09:09:11.373Z,30.70
2019-06-26T09:14:16.005Z,30.70
2019-06-26T09:19:20.639Z,30.80
2019-06-26T09:24:25.044Z,31.20
2019-06-26T09:29:31.334Z,31.30
2019-06-26T09:34:35.907Z,31.40
2019-06-26T09:39:40.341Z,31.70
2019-06-26T09:44:44.912Z,31.90
2019-06-26T09:49:52.759Z,32.10
2019-06-26T09:54:57.365Z,31.60
2019-06-26T10:00:01.958Z,31.40
2019-06-26T10:05:10.266Z,31.20
2019-06-26T10:10:16.574Z,31.20
2019-06-26T10:15:21.264Z,31.40
2019-06-26T10:20:25.903Z,31.50
2019-06-26T10:25:30.433Z,31.60
2019-06-26T10:30:35.032Z,31.80
2019-06-26T10:35:39.462Z,31.90
2019-06-26T10:40:44.034Z,31.80
2019-06-26T10:45:48.634Z,31.80
2019-06-26T10:50:58.555Z,31.70
2019-06-26T10:55:59.492Z,31.80
2019-06-26T11:01:04.124Z,32.00
2019-06-26T11:06:08.737Z,31.80
2019-06-26T11:11:13.226Z,31.90
2019-06-26T11:16:17.862Z,31.80
2019-06-26T11:21:22.410Z,32.20
2019-06-26T11:26:26.973Z,32.20
2019-06-26T11:31:31.445Z,32.40
2019-06-26T11:36:36.015Z,32.40
2019-06-26T11:41:40.992Z,32.20
2019-06-26T11:46:45.501Z,32.30
2019-06-26T11:51:51.588Z,32.10
2019-06-26T11:56:56.221Z,32.10
2019-06-26T12:02:00.688Z,32.30
2019-06-26T12:07:05.358Z,32.40
2019-06-26T12:12:09.936Z,32.00
2019-06-26T12:17:14.407Z,32.10
2019-06-26T12:22:19.033Z,32.30
2019-06-26T12:27:23.550Z,32.30
2019-06-26T12:32:28.112Z,31.60
2019-06-26T12:37:37.670Z,32.00
2019-06-26T12:42:39.018Z,32.20
2019-06-26T12:47:43.550Z,32.30
2019-06-26T12:52:48.181Z,31.80
2019-06-26T12:57:52.767Z,31.10
2019-06-26T13:02:57.274Z,31.20
2019-06-26T13:08:01.822Z,31.60
2019-06-26T13:13:06.494Z,31.70
2019-06-26T13:18:11.388Z,31.80
2019-06-26T13:23:16.171Z,31.80
2019-06-26T13:28:20.708Z,31.90
2019-06-26T13:33:25.147Z,31.40
2019-06-26T13:38:29.772Z,31.40
2019-06-26T13:43:34.409Z,31.20
2019-06-26T13:48:38.889Z,30.90
2019-06-26T13:53:43.508Z,30.30
2019-06-26T13:58:48.031Z,30.60
2019-06-26T14:03:52.586Z,30.70
2019-06-26T14:08:57.202Z,30.40
2019-06-26T14:14:01.856Z,30.50
2019-06-26T14:19:06.561Z,30.70
2019-06-26T14:24:11.044Z,30.50
2019-06-26T14:29:20.815Z,30.60
2019-06-26T14:34:21.739Z,30.70
2019-06-26T14:39:26.299Z,30.40
2019-06-26T14:44:30.850Z,29.80
2019-06-26T14:49:36.400Z,29.90
2019-06-26T14:54:40.785Z,29.90
2019-06-26T14:59:45.269Z,29.80
2019-06-26T15:04:50.944Z,29.80
2019-06-26T15:09:55.409Z,29.80
2019-06-26T15:15:00.046Z,29.40
2019-06-26T15:20:05.687Z,29.10
2019-06-26T15:25:10.626Z,29.10
2019-06-26T15:30:17.106Z,29.00
2019-06-26T15:35:22.012Z,29.00
2019-06-26T15:40:26.501Z,29.10
2019-06-26T15:45:31.082Z,28.90
2019-06-26T15:50:35.878Z,28.70
2019-06-26T15:55:40.916Z,28.40
2019-06-26T16:00:47.064Z,27.90
2019-06-26T16:05:51.537Z,27.80
2019-06-26T16:10:56.073Z,27.50
2019-06-26T16:16:00.493Z,27.30
2019-06-26T16:21:05.129Z,27.00
2019-06-26T16:26:09.614Z,26.70
2019-06-26T16:31:14.102Z,26.80
2019-06-26T16:36:18.676Z,26.20
2019-06-26T16:41:23.160Z,25.80
2019-06-26T16:46:27.791Z,25.60
2019-06-26T16:51:32.366Z,24.70
2019-06-26T16:56:37.883Z,24.10
2019-06-26T17:01:42.369Z,23.70
2019-06-26T17:06:46.870Z,23.80
2019-06-26T17:11:51.528Z,24.00
2019-06-26T17:16:58.255Z,23.30
2019-06-26T17:22:02.750Z,23.20
2019-06-26T17:27:08.503Z,23.10
2019-06-26T17:32:12.969Z,22.50
2019-06-26T17:37:17.507Z,22.10
2019-06-26T17:42:22.074Z,21.80
2019-06-26T17:47:26.561Z,21.90
2019-06-26T17:52:35.623Z,21.90
2019-06-26T17:57:38.289Z,21.80
2019-06-26T18:02:43.337Z,21.40
2019-06-26T18:07:47.982Z,21.10
2019-06-26T18:12:52.500Z,21.00
2019-06-26T18:17:57.136Z,20.30
2019-06-26T18:23:07.483Z,20.20
2019-06-26T18:28:08.942Z,20.00
2019-06-26T18:33:14.710Z,20.00
2019-06-26T18:38:19.161Z,20.20
2019-06-26T18:43:23.657Z,20.20
2019-06-26T18:48:28.146Z,20.20
2019-06-26T18:53:32.778Z,20.20
2019-06-26T18:58:37.455Z,20.20
2019-06-26T19:03:41.890Z,20.10
2019-06-26T19:08:46.415Z,19.90
2019-06-26T19:13:51.330Z,19.70
2019-06-26T19:18:57.203Z,19.50
2019-06-26T19:24:10.098Z,19.80
2019-06-26T19:29:08.122Z,19.70
2019-06-26T19:34:12.606Z,19.60
2019-06-26T19:39:20.546Z,19.50
2019-06-26T19:44:23.629Z,19.20
2019-06-26T19:49:28.251Z,18.80
2019-06-26T19:54:32.730Z,18.40
2019-06-26T19:59:37.705Z,18.20
2019-06-26T20:04:42.184Z,18.40
2019-06-26T20:09:46.597Z,18.50
2019-06-26T20:14:51.039Z,18.30
2019-06-26T20:19:55.609Z,18.30
2019-06-26T20:25:00.280Z,18.10
2019-06-26T20:30:09.603Z,18.00
2019-06-26T20:35:12.566Z,17.70
2019-06-26T20:40:17.296Z,18.00
2019-06-26T20:45:21.804Z,18.00
2019-06-26T20:50:26.203Z,18.00
2019-06-26T20:55:30.763Z,18.00
2019-06-26T21:00:35.328Z,17.40
2019-06-26T21:05:39.843Z,17.40
2019-06-26T21:10:44.389Z,17.30
2019-06-26T21:15:48.845Z,17.40
2019-06-26T21:20:53.387Z,17.50
2019-06-26T21:25:57.849Z,17.50
2019-06-26T21:31:02.473Z,17.40
2019-06-26T21:36:07.207Z,17.20
2019-06-26T21:41:11.908Z,17.30
2019-06-26T21:46:16.337Z,17.40
2019-06-26T21:51:20.895Z,17.30
2019-06-26T21:56:25.676Z,17.10
2019-06-26T22:01:30.673Z,17.10
2019-06-26T22:06:35.992Z,16.90
2019-06-26T22:11:40.601Z,16.90
2019-06-26T22:16:45.159Z,16.60
2019-06-26T22:21:49.782Z,16.60
2019-06-26T22:26:54.349Z,16.60
2019-06-26T22:31:58.926Z,16.40
2019-06-26T22:37:03.492Z,16.20
2019-06-26T22:42:07.983Z,16.20
2019-06-26T22:47:12.540Z,16.00
2019-06-26T22:52:17.102Z,16.00
2019-06-26T22:57:21.654Z,16.00
2019-06-26T23:02:26.087Z,16.00
2019-06-26T23:07:30.520Z,15.80
2019-06-26T23:12:35.077Z,15.90
2019-06-26T23:17:39.590Z,15.80
2019-06-26T23:22:44.153Z,15.80
2019-06-26T23:27:48.655Z,15.80
2019-06-26T23:32:53.142Z,15.70
2019-06-26T23:37:57.588Z,15.80
2019-06-26T23:43:02.105Z,15.70
2019-06-26T23:48:06.612Z,15.80
2019-06-26T23:53:11.111Z,15.80
2019-06-26T23:58:15.682Z,15.90
